sensor_id;sensor_type;location;lat;lon;timestamp;temperature;humidity
49222;DHT22;35047;37.588;-122.048;2023-09-07T00:01:15;30.70;79.20
49222;DHT22;35047;37.588;-122.048;2023-09-07T00:03:42;30.80;79.50
49222;DHT22;35047;37.588;-122.048;2023-09-07T00:06:09;30.70;79.20
49222;DHT22;35047;37.588;-122.048;2023-09-07T00:08:35;30.60;79.50
49222;DHT22;35047;37.588;-122.048;2023-09-07T00:11:06;30.20;80.00
49222;DHT22;35047;37.588;-122.048;2023-09-07T00:13:33;29.80;80.40
49222;DHT22;35047;37.588;-122.048;2023-09-07T00:16:01;30.00;81.20
49222;DHT22;35047;37.588;-122.048;2023-09-07T00:18:29;30.00;81.00
49222;DHT22;35047;37.588;-122.048;2023-09-07T00:20:55;29.80;81.30
49222;DHT22;35047;37.588;-122.048;2023-09-07T00:23:22;29.90;81.60
49222;DHT22;35047;37.588;-122.048;2023-09-07T00:25:48;30.00;82.10
49222;DHT22;35047;37.588;-122.048;2023-09-07T00:28:15;30.00;81.90
49222;DHT22;35047;37.588;-122.048;2023-09-07T00:30:42;30.10;82.20
49222;DHT22;35047;37.588;-122.048;2023-09-07T00:33:09;30.00;82.90
49222;DHT22;35047;37.588;-122.048;2023-09-07T00:35:35;30.00;81.40
49222;DHT22;35047;37.588;-122.048;2023-09-07T00:38:02;30.10;81.70
49222;DHT22;35047;37.588;-122.048;2023-09-07T00:40:29;30.00;82.30
49222;DHT22;35047;37.588;-122.048;2023-09-07T00:42:56;30.10;81.90
49222;DHT22;35047;37.588;-122.048;2023-09-07T00:45:22;30.20;81.80
49222;DHT22;35047;37.588;-122.048;2023-09-07T00:47:49;30.20;82.30
49222;DHT22;35047;37.588;-122.048;2023-09-07T00:50:15;30.30;82.70
49222;DHT22;35047;37.588;-122.048;2023-09-07T00:52:47;30.10;81.80
49222;DHT22;35047;37.588;-122.048;2023-09-07T00:55:17;30.10;82.10
49222;DHT22;35047;37.588;-122.048;2023-09-07T00:57:43;30.00;82.10
49222;DHT22;35047;37.588;-122.048;2023-09-07T01:00:10;29.90;83.00
49222;DHT22;35047;37.588;-122.048;2023-09-07T01:02:37;29.90;82.40
49222;DHT22;35047;37.588;-122.048;2023-09-07T01:05:04;30.00;82.60
49222;DHT22;35047;37.588;-122.048;2023-09-07T01:07:49;30.10;82.50
49222;DHT22;35047;37.588;-122.048;2023-09-07T01:10:17;30.30;81.60
49222;DHT22;35047;37.588;-122.048;2023-09-07T01:12:44;30.50;81.00
49222;DHT22;35047;37.588;-122.048;2023-09-07T01:15:11;30.70;80.80
49222;DHT22;35047;37.588;-122.048;2023-09-07T01:17:37;30.40;80.70
49222;DHT22;35047;37.588;-122.048;2023-09-07T01:20:05;30.40;80.90
49222;DHT22;35047;37.588;-122.048;2023-09-07T01:22:37;30.50;81.40
49222;DHT22;35047;37.588;-122.048;2023-09-07T01:25:05;30.60;81.20
49222;DHT22;35047;37.588;-122.048;2023-09-07T01:27:33;30.60;81.90
49222;DHT22;35047;37.588;-122.048;2023-09-07T01:30:00;30.70;81.30
49222;DHT22;35047;37.588;-122.048;2023-09-07T01:32:26;30.70;81.00
49222;DHT22;35047;37.588;-122.048;2023-09-07T01:34:55;30.70;80.90
49222;DHT22;35047;37.588;-122.048;2023-09-07T01:37:23;30.70;81.70
49222;DHT22;35047;37.588;-122.048;2023-09-07T01:39:50;30.30;81.20
49222;DHT22;35047;37.588;-122.048;2023-09-07T01:42:16;29.90;82.30
49222;DHT22;35047;37.588;-122.048;2023-09-07T01:44:43;29.80;83.00
49222;DHT22;35047;37.588;-122.048;2023-09-07T01:47:09;29.90;83.00
49222;DHT22;35047;37.588;-122.048;2023-09-07T01:49:35;29.60;83.50
49222;DHT22;35047;37.588;-122.048;2023-09-07T01:52:02;29.40;83.70
49222;DHT22;35047;37.588;-122.048;2023-09-07T01:54:29;28.80;84.20
49222;DHT22;35047;37.588;-122.048;2023-09-07T01:56:55;28.40;84.80
49222;DHT22;35047;37.588;-122.048;2023-09-07T01:59:22;28.20;85.60
49222;DHT22;35047;37.588;-122.048;2023-09-07T02:01:48;27.80;86.80
49222;DHT22;35047;37.588;-122.048;2023-09-07T02:04:15;27.70;87.70
49222;DHT22;35047;37.588;-122.048;2023-09-07T02:16:28;26.70;89.40
49222;DHT22;35047;37.588;-122.048;2023-09-07T02:38:42;25.50;91.50
49222;DHT22;35047;37.588;-122.048;2023-09-07T02:41:08;25.50;92.10
49222;DHT22;35047;37.588;-122.048;2023-09-07T02:43:35;25.50;92.10
49222;DHT22;35047;37.588;-122.048;2023-09-07T02:46:01;25.30;92.20
49222;DHT22;35047;37.588;-122.048;2023-09-07T02:48:28;25.20;92.40
49222;DHT22;35047;37.588;-122.048;2023-09-07T02:50:54;24.90;92.60
49222;DHT22;35047;37.588;-122.048;2023-09-07T02:53:24;24.90;93.00
49222;DHT22;35047;37.588;-122.048;2023-09-07T02:55:51;24.90;93.10
49222;DHT22;35047;37.588;-122.048;2023-09-07T02:58:17;24.90;93.00
49222;DHT22;35047;37.588;-122.048;2023-09-07T03:13:06;23.80;93.90
49222;DHT22;35047;37.588;-122.048;2023-09-07T03:22:53;24.10;93.80
49222;DHT22;35047;37.588;-122.048;2023-09-07T03:27:47;24.20;93.50
49222;DHT22;35047;37.588;-122.048;2023-09-07T03:30:14;24.20;93.50
49222;DHT22;35047;37.588;-122.048;2023-09-07T03:32:40;24.30;93.50
49222;DHT22;35047;37.588;-122.048;2023-09-07T03:40:03;24.90;92.60
49222;DHT22;35047;37.588;-122.048;2023-09-07T03:42:31;25.10;92.40
49222;DHT22;35047;37.588;-122.048;2023-09-07T03:44:57;25.30;92.40
49222;DHT22;35047;37.588;-122.048;2023-09-07T03:47:24;25.30;92.60
49222;DHT22;35047;37.588;-122.048;2023-09-07T03:49:55;25.40;92.50
49222;DHT22;35047;37.588;-122.048;2023-09-07T03:54:54;25.50;91.80
49222;DHT22;35047;37.588;-122.048;2023-09-07T04:02:16;25.50;91.60
49222;DHT22;35047;37.588;-122.048;2023-09-07T04:07:19;25.50;91.50
49222;DHT22;35047;37.588;-122.048;2023-09-07T04:12:13;25.40;91.70
49222;DHT22;35047;37.588;-122.048;2023-09-07T04:22:01;25.30;91.80
49222;DHT22;35047;37.588;-122.048;2023-09-07T04:24:27;25.40;92.10
49222;DHT22;35047;37.588;-122.048;2023-09-07T04:27:01;25.30;92.30
49222;DHT22;35047;37.588;-122.048;2023-09-07T04:29:28;25.50;92.20
49222;DHT22;35047;37.588;-122.048;2023-09-07T04:31:54;25.50;92.10
49222;DHT22;35047;37.588;-122.048;2023-09-07T04:41:42;25.50;91.60
49222;DHT22;35047;37.588;-122.048;2023-09-07T05:01:36;25.50;91.40
49222;DHT22;35047;37.588;-122.048;2023-09-07T05:04:02;25.50;91.50
49222;DHT22;35047;37.588;-122.048;2023-09-07T05:16:17;25.30;91.90
49222;DHT22;35047;37.588;-122.048;2023-09-07T05:18:43;25.30;92.20
49222;DHT22;35047;37.588;-122.048;2023-09-07T05:26:07;24.90;92.30
49222;DHT22;35047;37.588;-122.048;2023-09-07T05:28:34;25.10;92.30
49222;DHT22;35047;37.588;-122.048;2023-09-07T05:31:00;25.10;92.60
49222;DHT22;35047;37.588;-122.048;2023-09-07T05:33:27;25.10;92.40
49222;DHT22;35047;37.588;-122.048;2023-09-07T05:35:53;25.20;92.30
49222;DHT22;35047;37.588;-122.048;2023-09-07T05:38:20;25.10;92.10
49222;DHT22;35047;37.588;-122.048;2023-09-07T05:48:10;25.10;92.10
49222;DHT22;35047;37.588;-122.048;2023-09-07T05:50:37;25.00;92.50
49222;DHT22;35047;37.588;-122.048;2023-09-07T06:32:18;24.70;92.40
49222;DHT22;35047;37.588;-122.048;2023-09-07T06:37:12;24.50;92.70
49222;DHT22;35047;37.588;-122.048;2023-09-07T06:39:38;24.30;93.40
49222;DHT22;35047;37.588;-122.048;2023-09-07T06:56:50;23.50;94.00
49222;DHT22;35047;37.588;-122.048;2023-09-07T07:06:36;23.10;94.60
49222;DHT22;35047;37.588;-122.048;2023-09-07T07:13:57;22.90;95.00
49222;DHT22;35047;37.588;-122.048;2023-09-07T07:21:16;22.60;95.40
49222;DHT22;35047;37.588;-122.048;2023-09-07T07:50:46;22.30;95.90
49222;DHT22;35047;37.588;-122.048;2023-09-07T07:53:12;22.50;96.20
49222;DHT22;35047;37.588;-122.048;2023-09-07T07:55:39;22.50;96.20
49222;DHT22;35047;37.588;-122.048;2023-09-07T07:58:07;22.50;96.20
49222;DHT22;35047;37.588;-122.048;2023-09-07T08:00:35;22.50;96.20
49222;DHT22;35047;37.588;-122.048;2023-09-07T08:03:01;22.50;96.10
49222;DHT22;35047;37.588;-122.048;2023-09-07T08:05:34;22.60;96.20
49222;DHT22;35047;37.588;-122.048;2023-09-07T08:32:32;22.50;95.90
49222;DHT22;35047;37.588;-122.048;2023-09-07T08:34:59;22.60;96.20
49222;DHT22;35047;37.588;-122.048;2023-09-07T08:37:27;22.50;96.30
49222;DHT22;35047;37.588;-122.048;2023-09-07T08:39:54;22.60;96.30
49222;DHT22;35047;37.588;-122.048;2023-09-07T08:42:22;22.50;96.10
49222;DHT22;35047;37.588;-122.048;2023-09-07T08:44:51;22.70;96.30
49222;DHT22;35047;37.588;-122.048;2023-09-07T08:54:43;22.50;96.20
49222;DHT22;35047;37.588;-122.048;2023-09-07T08:57:10;22.60;96.50
49222;DHT22;35047;37.588;-122.048;2023-09-07T08:59:36;22.70;96.40
49222;DHT22;35047;37.588;-122.048;2023-09-07T09:02:05;22.70;96.50
49222;DHT22;35047;37.588;-122.048;2023-09-07T09:04:33;22.70;96.50
49222;DHT22;35047;37.588;-122.048;2023-09-07T09:07:00;22.70;96.50
49222;DHT22;35047;37.588;-122.048;2023-09-07T09:09:30;22.70;96.60
49222;DHT22;35047;37.588;-122.048;2023-09-07T09:12:16;22.70;96.60
49222;DHT22;35047;37.588;-122.048;2023-09-07T09:14:44;22.70;96.80
49222;DHT22;35047;37.588;-122.048;2023-09-07T09:17:14;22.70;96.60
49222;DHT22;35047;37.588;-122.048;2023-09-07T09:19:41;22.70;96.70
49222;DHT22;35047;37.588;-122.048;2023-09-07T09:22:08;22.80;96.60
49222;DHT22;35047;37.588;-122.048;2023-09-07T09:24:35;22.80;96.50
49222;DHT22;35047;37.588;-122.048;2023-09-07T09:27:02;22.80;96.70
49222;DHT22;35047;37.588;-122.048;2023-09-07T09:29:32;22.80;96.70
49222;DHT22;35047;37.588;-122.048;2023-09-07T09:32:02;22.80;96.70
49222;DHT22;35047;37.588;-122.048;2023-09-07T09:34:37;22.80;96.70
49222;DHT22;35047;37.588;-122.048;2023-09-07T09:37:05;22.90;96.90
49222;DHT22;35047;37.588;-122.048;2023-09-07T09:39:38;22.90;96.90
49222;DHT22;35047;37.588;-122.048;2023-09-07T09:42:06;22.90;97.00
49222;DHT22;35047;37.588;-122.048;2023-09-07T09:44:32;22.90;97.10
49222;DHT22;35047;37.588;-122.048;2023-09-07T09:47:01;22.90;97.00
49222;DHT22;35047;37.588;-122.048;2023-09-07T09:49:28;23.00;97.00
49222;DHT22;35047;37.588;-122.048;2023-09-07T09:51:56;22.90;97.00
49222;DHT22;35047;37.588;-122.048;2023-09-07T09:54:25;22.90;97.00
49222;DHT22;35047;37.588;-122.048;2023-09-07T09:56:52;22.90;97.00
49222;DHT22;35047;37.588;-122.048;2023-09-07T09:59:20;22.90;97.10
49222;DHT22;35047;37.588;-122.048;2023-09-07T10:01:48;23.00;97.10
49222;DHT22;35047;37.588;-122.048;2023-09-07T10:04:17;22.90;97.20
49222;DHT22;35047;37.588;-122.048;2023-09-07T10:07:01;22.80;97.10
49222;DHT22;35047;37.588;-122.048;2023-09-07T10:09:34;22.60;97.50
49222;DHT22;35047;37.588;-122.048;2023-09-07T10:12:03;22.70;97.60
49222;DHT22;35047;37.588;-122.048;2023-09-07T10:14:43;22.60;97.70
49222;DHT22;35047;37.588;-122.048;2023-09-07T10:17:22;22.80;97.50
49222;DHT22;35047;37.588;-122.048;2023-09-07T10:19:48;22.90;97.30
49222;DHT22;35047;37.588;-122.048;2023-09-07T10:22:24;22.90;97.40
49222;DHT22;35047;37.588;-122.048;2023-09-07T10:25:00;23.00;97.30
49222;DHT22;35047;37.588;-122.048;2023-09-07T10:27:36;22.60;97.70
49222;DHT22;35047;37.588;-122.048;2023-09-07T10:30:09;22.60;97.70
49222;DHT22;35047;37.588;-122.048;2023-09-07T10:32:40;22.60;97.90
49222;DHT22;35047;37.588;-122.048;2023-09-07T10:35:18;22.70;97.60
49222;DHT22;35047;37.588;-122.048;2023-09-07T10:37:46;22.80;97.50
49222;DHT22;35047;37.588;-122.048;2023-09-07T10:40:22;22.90;97.40
49222;DHT22;35047;37.588;-122.048;2023-09-07T10:42:48;23.00;97.40
49222;DHT22;35047;37.588;-122.048;2023-09-07T10:45:16;23.00;97.30
49222;DHT22;35047;37.588;-122.048;2023-09-07T10:47:43;23.00;97.20
49222;DHT22;35047;37.588;-122.048;2023-09-07T10:50:12;23.00;97.10
49222;DHT22;35047;37.588;-122.048;2023-09-07T10:52:43;22.90;97.20
49222;DHT22;35047;37.588;-122.048;2023-09-07T10:55:11;23.00;97.20
49222;DHT22;35047;37.588;-122.048;2023-09-07T10:57:44;23.00;97.00
49222;DHT22;35047;37.588;-122.048;2023-09-07T11:00:12;23.10;97.10
49222;DHT22;35047;37.588;-122.048;2023-09-07T11:02:42;23.10;97.00
49222;DHT22;35047;37.588;-122.048;2023-09-07T11:05:09;23.10;96.90
49222;DHT22;35047;37.588;-122.048;2023-09-07T11:07:36;23.10;96.90
49222;DHT22;35047;37.588;-122.048;2023-09-07T11:10:09;23.10;96.90
49222;DHT22;35047;37.588;-122.048;2023-09-07T11:12:41;23.20;97.00
49222;DHT22;35047;37.588;-122.048;2023-09-07T11:15:11;23.10;96.90
49222;DHT22;35047;37.588;-122.048;2023-09-07T11:17:38;23.20;97.00
49222;DHT22;35047;37.588;-122.048;2023-09-07T11:20:07;23.10;96.80
49222;DHT22;35047;37.588;-122.048;2023-09-07T11:22:36;23.10;96.80
49222;DHT22;35047;37.588;-122.048;2023-09-07T11:25:05;23.20;96.80
49222;DHT22;35047;37.588;-122.048;2023-09-07T11:30:00;23.00;96.40
49222;DHT22;35047;37.588;-122.048;2023-09-07T11:32:34;23.10;97.00
49222;DHT22;35047;37.588;-122.048;2023-09-07T11:35:00;23.00;97.00
49222;DHT22;35047;37.588;-122.048;2023-09-07T11:39:54;22.90;96.60
49222;DHT22;35047;37.588;-122.048;2023-09-07T11:42:21;23.00;97.10
49222;DHT22;35047;37.588;-122.048;2023-09-07T11:44:48;22.60;97.40
49222;DHT22;35047;37.588;-122.048;2023-09-07T11:47:15;22.30;98.20
49222;DHT22;35047;37.588;-122.048;2023-09-07T11:49:41;22.40;98.00
49222;DHT22;35047;37.588;-122.048;2023-09-07T11:52:08;22.60;98.00
49222;DHT22;35047;37.588;-122.048;2023-09-07T11:54:36;22.80;97.70
49222;DHT22;35047;37.588;-122.048;2023-09-07T11:57:03;22.70;97.30
49222;DHT22;35047;37.588;-122.048;2023-09-07T11:59:29;22.90;97.50
49222;DHT22;35047;37.588;-122.048;2023-09-07T12:01:56;23.00;97.20
49222;DHT22;35047;37.588;-122.048;2023-09-07T12:04:23;23.00;97.30
49222;DHT22;35047;37.588;-122.048;2023-09-07T12:06:49;23.00;97.20
49222;DHT22;35047;37.588;-122.048;2023-09-07T12:09:16;23.00;97.60
49222;DHT22;35047;37.588;-122.048;2023-09-07T12:11:43;23.00;97.50
49222;DHT22;35047;37.588;-122.048;2023-09-07T12:14:09;23.00;97.50
49222;DHT22;35047;37.588;-122.048;2023-09-07T12:16:36;23.10;98.10
49222;DHT22;35047;37.588;-122.048;2023-09-07T12:19:02;23.10;98.70
49222;DHT22;35047;37.588;-122.048;2023-09-07T12:21:29;23.10;98.60
49222;DHT22;35047;37.588;-122.048;2023-09-07T12:26:22;23.00;97.70
49222;DHT22;35047;37.588;-122.048;2023-09-07T12:31:16;23.00;97.70
49222;DHT22;35047;37.588;-122.048;2023-09-07T12:36:09;23.00;98.00
49222;DHT22;35047;37.588;-122.048;2023-09-07T12:38:37;23.10;97.80
49222;DHT22;35047;37.588;-122.048;2023-09-07T12:41:04;23.10;99.00
49222;DHT22;35047;37.588;-122.048;2023-09-07T12:43:31;23.20;99.10
49222;DHT22;35047;37.588;-122.048;2023-09-07T12:45:58;23.10;98.30
49222;DHT22;35047;37.588;-122.048;2023-09-07T12:48:25;23.00;97.80
49222;DHT22;35047;37.588;-122.048;2023-09-07T12:50:51;23.00;97.80
49222;DHT22;35047;37.588;-122.048;2023-09-07T12:53:18;22.80;98.10
49222;DHT22;35047;37.588;-122.048;2023-09-07T12:55:45;22.80;97.80
49222;DHT22;35047;37.588;-122.048;2023-09-07T12:58:11;22.90;97.90
49222;DHT22;35047;37.588;-122.048;2023-09-07T13:00:38;23.00;97.70
49222;DHT22;35047;37.588;-122.048;2023-09-07T13:03:05;23.00;97.50
49222;DHT22;35047;37.588;-122.048;2023-09-07T13:05:32;23.00;97.50
49222;DHT22;35047;37.588;-122.048;2023-09-07T13:07:58;22.90;97.30
49222;DHT22;35047;37.588;-122.048;2023-09-07T13:10:28;22.90;97.00
49222;DHT22;35047;37.588;-122.048;2023-09-07T13:12:55;23.00;97.30
49222;DHT22;35047;37.588;-122.048;2023-09-07T13:15:22;23.00;97.20
49222;DHT22;35047;37.588;-122.048;2023-09-07T13:17:48;22.70;97.20
49222;DHT22;35047;37.588;-122.048;2023-09-07T13:20:15;22.80;97.60
49222;DHT22;35047;37.588;-122.048;2023-09-07T13:22:43;22.80;97.40
49222;DHT22;35047;37.588;-122.048;2023-09-07T13:25:09;22.80;97.20
49222;DHT22;35047;37.588;-122.048;2023-09-07T13:27:36;22.80;97.30
49222;DHT22;35047;37.588;-122.048;2023-09-07T13:30:03;22.30;97.30
49222;DHT22;35047;37.588;-122.048;2023-09-07T13:32:29;22.50;97.70
49222;DHT22;35047;37.588;-122.048;2023-09-07T13:34:56;22.50;97.70
49222;DHT22;35047;37.588;-122.048;2023-09-07T13:37:23;22.70;97.70
49222;DHT22;35047;37.588;-122.048;2023-09-07T13:39:49;22.70;97.40
49222;DHT22;35047;37.588;-122.048;2023-09-07T13:42:16;22.70;97.60
49222;DHT22;35047;37.588;-122.048;2023-09-07T13:44:42;22.80;97.40
49222;DHT22;35047;37.588;-122.048;2023-09-07T13:47:11;22.80;97.30
49222;DHT22;35047;37.588;-122.048;2023-09-07T13:49:38;22.80;97.10
49222;DHT22;35047;37.588;-122.048;2023-09-07T13:59:25;22.80;96.80
49222;DHT22;35047;37.588;-122.048;2023-09-07T14:01:54;23.00;97.10
49222;DHT22;35047;37.588;-122.048;2023-09-07T14:04:21;23.00;97.10
49222;DHT22;35047;37.588;-122.048;2023-09-07T14:09:15;22.90;96.60
49222;DHT22;35047;37.588;-122.048;2023-09-07T14:11:41;23.10;97.20
49222;DHT22;35047;37.588;-122.048;2023-09-07T14:14:08;23.10;96.90
49222;DHT22;35047;37.588;-122.048;2023-09-07T14:16:34;22.90;97.00
49222;DHT22;35047;37.588;-122.048;2023-09-07T14:19:01;22.90;97.00
49222;DHT22;35047;37.588;-122.048;2023-09-07T14:21:27;23.00;97.30
49222;DHT22;35047;37.588;-122.048;2023-09-07T14:23:54;23.00;97.10
49222;DHT22;35047;37.588;-122.048;2023-09-07T14:26:21;23.00;97.00
49222;DHT22;35047;37.588;-122.048;2023-09-07T14:28:48;23.00;96.70
49222;DHT22;35047;37.588;-122.048;2023-09-07T14:31:14;23.00;96.40
49222;DHT22;35047;37.588;-122.048;2023-09-07T14:33:40;23.10;96.70
49222;DHT22;35047;37.588;-122.048;2023-09-07T14:36:08;23.10;96.70
49222;DHT22;35047;37.588;-122.048;2023-09-07T14:41:08;23.10;96.20
49222;DHT22;35047;37.588;-122.048;2023-09-07T14:46:04;23.20;96.30
49222;DHT22;35047;37.588;-122.048;2023-09-07T14:48:30;23.40;96.50
49222;DHT22;35047;37.588;-122.048;2023-09-07T14:50:57;23.40;96.10
49222;DHT22;35047;37.588;-122.048;2023-09-07T14:55:51;23.30;95.90
49222;DHT22;35047;37.588;-122.048;2023-09-07T14:58:18;23.40;96.10
49222;DHT22;35047;37.588;-122.048;2023-09-07T15:00:44;23.40;96.10
49222;DHT22;35047;37.588;-122.048;2023-09-07T15:05:38;23.20;95.90
49222;DHT22;35047;37.588;-122.048;2023-09-07T15:08:04;23.40;96.20
49222;DHT22;35047;37.588;-122.048;2023-09-07T15:10:33;23.40;96.20
49222;DHT22;35047;37.588;-122.048;2023-09-07T15:13:02;23.40;95.90
49222;DHT22;35047;37.588;-122.048;2023-09-07T15:15:30;23.50;95.90
49222;DHT22;35047;37.588;-122.048;2023-09-07T15:18:03;23.60;95.70
49222;DHT22;35047;37.588;-122.048;2023-09-07T15:20:29;23.60;95.60
49222;DHT22;35047;37.588;-122.048;2023-09-07T15:22:56;23.60;95.60
49222;DHT22;35047;37.588;-122.048;2023-09-07T15:25:23;23.70;95.60
49222;DHT22;35047;37.588;-122.048;2023-09-07T15:27:49;23.70;95.50
49222;DHT22;35047;37.588;-122.048;2023-09-07T15:32:43;23.50;95.10
49222;DHT22;35047;37.588;-122.048;2023-09-07T15:35:09;23.50;95.60
49222;DHT22;35047;37.588;-122.048;2023-09-07T15:37:36;23.50;95.60
49222;DHT22;35047;37.588;-122.048;2023-09-07T15:40:03;23.40;95.80
49222;DHT22;35047;37.588;-122.048;2023-09-07T15:42:29;23.40;95.90
49222;DHT22;35047;37.588;-122.048;2023-09-07T15:44:56;23.40;96.00
49222;DHT22;35047;37.588;-122.048;2023-09-07T15:47:23;23.50;96.10
49222;DHT22;35047;37.588;-122.048;2023-09-07T15:49:51;23.60;96.00
49222;DHT22;35047;37.588;-122.048;2023-09-07T15:52:19;23.70;95.90
49222;DHT22;35047;37.588;-122.048;2023-09-07T15:54:45;23.70;95.90
49222;DHT22;35047;37.588;-122.048;2023-09-07T15:57:12;23.70;95.70
49222;DHT22;35047;37.588;-122.048;2023-09-07T15:59:38;23.80;95.60
49222;DHT22;35047;37.588;-122.048;2023-09-07T16:02:05;23.80;95.80
49222;DHT22;35047;37.588;-122.048;2023-09-07T16:04:32;23.80;95.70
49222;DHT22;35047;37.588;-122.048;2023-09-07T16:06:59;23.90;95.20
49222;DHT22;35047;37.588;-122.048;2023-09-07T16:09:25;23.80;95.40
49222;DHT22;35047;37.588;-122.048;2023-09-07T16:11:53;23.90;95.10
49222;DHT22;35047;37.588;-122.048;2023-09-07T16:16:46;23.90;94.90
49222;DHT22;35047;37.588;-122.048;2023-09-07T16:21:40;23.80;94.80
49222;DHT22;35047;37.588;-122.048;2023-09-07T16:24:06;23.70;95.60
49222;DHT22;35047;37.588;-122.048;2023-09-07T16:26:33;23.80;95.40
49222;DHT22;35047;37.588;-122.048;2023-09-07T16:28:59;24.10;95.10
49222;DHT22;35047;37.588;-122.048;2023-09-07T17:05:48;31.80;82.90
49222;DHT22;35047;37.588;-122.048;2023-09-07T17:25:32;33.30;79.50
49222;DHT22;35047;37.588;-122.048;2023-09-07T18:07:23;32.70;81.70
49222;DHT22;35047;37.588;-122.048;2023-09-07T23:09:11;33.50;77.50
49222;DHT22;35047;37.588;-122.048;2023-09-07T23:19:02;33.20;78.30
49222;DHT22;35047;37.588;-122.048;2023-09-07T23:21:29;32.80;78.30
49222;DHT22;35047;37.588;-122.048;2023-09-07T23:23:55;32.60;78.30
49222;DHT22;35047;37.588;-122.048;2023-09-07T23:26:22;32.40;78.10
49222;DHT22;35047;37.588;-122.048;2023-09-07T23:28:48;32.20;79.30
49222;DHT22;35047;37.588;-122.048;2023-09-07T23:31:15;32.20;79.00
49222;DHT22;35047;37.588;-122.048;2023-09-07T23:33:43;32.20;78.50
49222;DHT22;35047;37.588;-122.048;2023-09-07T23:36:12;32.20;78.70
49222;DHT22;35047;37.588;-122.048;2023-09-07T23:38:38;32.30;78.80
49222;DHT22;35047;37.588;-122.048;2023-09-07T23:41:07;32.40;78.50
49222;DHT22;35047;37.588;-122.048;2023-09-07T23:43:33;32.30;78.10
49222;DHT22;35047;37.588;-122.048;2023-09-07T23:46:00;32.40;78.70
49222;DHT22;35047;37.588;-122.048;2023-09-07T23:48:26;32.30;78.40
49222;DHT22;35047;37.588;-122.048;2023-09-07T23:50:53;32.10;77.70
49222;DHT22;35047;37.588;-122.048;2023-09-07T23:53:19;32.10;77.90
49222;DHT22;35047;37.588;-122.048;2023-09-07T23:55:46;32.00;77.70
49222;DHT22;35047;37.588;-122.048;2023-09-07T23:58:12;32.00;79.40
